Time;durP1;ratioP1;P1;durP2;ratioP2;P2;SDS_P1;SDS_P2;PMS_P1;PMS_P2;Temp;Humidity;BMP_temperature;BMP_pressure;BME280_temperature;BME280_humidity;BME280_pressure;Samples;Min_cycle;Max_cycle;Signal;HPM_P1;HPM_P2
2023/07/30 00:02:07;;;;;;;13.57;9.85;;;24.40;75.60;;;;;;4998282;28;20026;-60
2023/07/30 00:04:33;;;;;;;13.15;9.48;;;24.40;75.70;;;;;;4998092;28;20073;-61
2023/07/30 00:06:59;;;;;;;15.60;8.98;;;24.40;75.90;;;;;;4997434;28;20088;-62
2023/07/30 00:09:25;;;;;;;13.35;9.23;;;24.40;76.00;;;;;;4998058;28;20113;-64
2023/07/30 00:11:51;;;;;;;11.38;9.60;;;24.40;75.90;;;;;;4997267;28;20053;-61
2023/07/30 00:14:18;;;;;;;12.15;9.30;;;24.30;75.90;;;;;;4997405;28;20027;-63
2023/07/30 00:16:44;;;;;;;13.13;10.25;;;24.30;76.10;;;;;;4997266;28;20045;-62
2023/07/30 00:19:10;;;;;;;15.55;9.85;;;24.30;76.10;;;;;;4997827;28;20034;-60
2023/07/30 00:21:36;;;;;;;14.93;9.63;;;24.30;76.10;;;;;;4997027;28;20027;-61
2023/07/30 00:24:02;;;;;;;12.80;9.68;;;24.20;76.20;;;;;;4996835;28;20030;-62
2023/07/30 00:26:29;;;;;;;12.88;9.27;;;24.20;76.20;;;;;;4997047;28;20026;-62
2023/07/30 00:28:55;;;;;;;14.85;10.40;;;24.20;76.30;;;;;;4997155;28;20026;-62
2023/07/30 00:31:21;;;;;;;11.20;8.48;;;24.20;76.40;;;;;;4997573;28;20037;-62
2023/07/30 00:33:47;;;;;;;13.75;8.43;;;24.10;76.40;;;;;;4997519;28;20344;-64
2023/07/30 00:36:14;;;;;;;14.02;10.10;;;24.10;76.40;;;;;;4997449;28;20026;-63
2023/07/30 00:38:40;;;;;;;14.00;9.27;;;24.10;76.60;;;;;;4996931;28;20030;-63
2023/07/30 00:41:06;;;;;;;12.95;9.90;;;24.00;76.80;;;;;;4997132;28;20028;-64
2023/07/30 00:43:32;;;;;;;13.25;9.20;;;24.00;77.10;;;;;;4997094;28;20030;-64
2023/07/30 00:45:58;;;;;;;12.38;8.77;;;23.90;77.30;;;;;;4996753;28;20526;-61
2023/07/30 00:48:24;;;;;;;12.70;9.68;;;23.90;77.50;;;;;;4996698;28;20106;-59
2023/07/30 00:50:50;;;;;;;12.90;8.85;;;23.80;77.60;;;;;;4996939;28;20047;-61
2023/07/30 00:53:17;;;;;;;13.23;8.90;;;23.70;77.60;;;;;;4996641;28;20033;-59
2023/07/30 00:55:44;;;;;;;11.90;8.23;;;23.70;77.70;;;;;;4997140;28;20102;-62
2023/07/30 00:58:11;;;;;;;13.27;9.40;;;23.70;77.70;;;;;;4996770;28;20069;-65
2023/07/30 01:00:37;;;;;;;13.45;9.35;;;23.70;77.80;;;;;;4996477;28;20026;-63
2023/07/30 01:03:04;;;;;;;13.25;9.63;;;23.70;78.00;;;;;;4996748;28;20025;-62
2023/07/30 01:05:30;;;;;;;12.35;9.50;;;23.70;78.00;;;;;;4996689;28;20109;-62
2023/07/30 01:07:56;;;;;;;12.07;8.85;;;23.70;78.20;;;;;;4996540;28;20034;-61
2023/07/30 01:10:23;;;;;;;11.07;8.63;;;23.60;78.40;;;;;;4995253;28;20018;-62
2023/07/30 01:12:50;;;;;;;13.98;9.43;;;23.60;78.40;;;;;;4996580;28;20041;-59
2023/07/30 01:15:16;;;;;;;10.15;7.63;;;23.70;78.40;;;;;;4996252;28;20080;-62
2023/07/30 01:17:43;;;;;;;11.93;9.10;;;23.70;78.40;;;;;;4996361;28;20037;-60
2023/07/30 01:20:11;;;;;;;12.65;9.35;;;23.70;78.40;;;;;;4996606;28;20030;-62
2023/07/30 01:22:37;;;;;;;12.38;8.95;;;23.70;78.40;;;;;;4996076;28;20038;-61
2023/07/30 01:25:03;;;;;;;12.98;10.40;;;23.80;78.50;;;;;;4996155;28;20052;-61
2023/07/30 01:27:33;;;;;;;13.60;10.15;;;23.80;78.50;;;;;;4996060;28;20026;-62
2023/07/30 01:30:08;;;;;;;15.77;10.77;;;23.90;78.50;;;;;;4996553;28;20034;-61
2023/07/30 01:32:36;;;;;;;13.73;10.68;;;23.90;78.40;;;;;;4995979;28;20322;-63
2023/07/30 01:35:04;;;;;;;15.48;10.50;;;23.90;78.40;;;;;;4995943;28;20349;-62
2023/07/30 01:37:30;;;;;;;14.98;11.25;;;23.90;78.40;;;;;;4995883;28;20022;-63
2023/07/30 01:39:58;;;;;;;20.67;15.93;;;23.90;78.40;;;;;;4995546;28;20089;-61
2023/07/30 01:42:29;;;;;;;21.80;16.88;;;23.90;78.60;;;;;;4996405;28;20035;-62
2023/07/30 01:44:55;;;;;;;21.13;15.48;;;23.80;78.70;;;;;;4996342;28;20033;-59
2023/07/30 01:47:21;;;;;;;27.38;19.85;;;23.70;79.00;;;;;;4995906;28;20161;-64
2023/07/30 01:49:47;;;;;;;27.85;19.98;;;23.50;80.00;;;;;;4995818;28;20097;-59
2023/07/30 01:52:13;;;;;;;22.50;18.63;;;23.40;80.50;;;;;;4995769;28;20485;-63
2023/07/30 01:54:39;;;;;;;23.45;18.73;;;23.30;80.60;;;;;;4996030;28;20441;-59
2023/07/30 01:57:05;;;;;;;24.63;19.65;;;23.20;80.80;;;;;;4995692;28;20089;-59
2023/07/30 01:59:31;;;;;;;23.60;19.35;;;23.20;81.10;;;;;;4995637;28;20101;-60
2023/07/30 02:01:57;;;;;;;23.05;19.40;;;23.20;81.50;;;;;;4995719;28;20026;-60
2023/07/30 02:04:23;;;;;;;24.23;19.75;;;23.10;81.60;;;;;;4995698;28;20081;-62
2023/07/30 02:06:50;;;;;;;21.65;17.38;;;23.10;81.70;;;;;;4995480;28;20396;-59
2023/07/30 02:09:16;;;;;;;24.90;19.50;;;23.00;81.60;;;;;;4995876;28;20041;-66
2023/07/30 02:11:42;;;;;;;23.23;17.38;;;23.00;81.90;;;;;;4995402;28;20054;-64
2023/07/30 02:14:10;;;;;;;16.55;13.60;;;22.90;82.00;;;;;;4995601;28;20364;-63
2023/07/30 02:16:36;;;;;;;16.27;12.15;;;22.90;81.70;;;;;;4995461;28;20030;-63
2023/07/30 02:19:02;;;;;;;17.45;13.80;;;23.00;81.60;;;;;;4995817;28;20030;-61
2023/07/30 02:21:32;;;;;;;13.45;11.10;;;23.10;81.40;;;;;;4995772;28;20057;-60
2023/07/30 02:23:59;;;;;;;17.73;14.00;;;23.00;81.40;;;;;;4995517;28;20022;-64
2023/07/30 02:26:25;;;;;;;16.75;13.23;;;23.10;81.30;;;;;;4995891;28;20508;-60
2023/07/30 02:28:51;;;;;;;18.60;14.73;;;23.10;81.10;;;;;;4995980;28;20336;-64
2023/07/30 02:31:17;;;;;;;18.17;14.68;;;23.10;81.00;;;;;;4995717;28;20046;-62
2023/07/30 02:33:43;;;;;;;20.40;15.85;;;23.10;80.90;;;;;;4995951;28;20065;-65
2023/07/30 02:36:09;;;;;;;23.23;17.05;;;23.10;80.90;;;;;;4995289;28;20507;-62
2023/07/30 02:38:35;;;;;;;18.15;15.10;;;23.00;81.60;;;;;;4995629;28;20030;-63
2023/07/30 02:41:01;;;;;;;18.00;15.63;;;22.90;81.00;;;;;;4995885;28;20156;-64
2023/07/30 02:43:27;;;;;;;19.90;16.23;;;22.90;81.10;;;;;;4994746;28;20452;-62
2023/07/30 02:45:53;;;;;;;22.15;17.30;;;22.90;81.20;;;;;;4997071;28;20459;-63
2023/07/30 02:48:19;;;;;;;18.10;15.15;;;22.90;81.20;;;;;;4998969;28;20026;-61
2023/07/30 02:50:45;;;;;;;19.65;16.55;;;22.90;81.40;;;;;;4998969;28;20031;-62
2023/07/30 02:53:11;;;;;;;19.92;15.57;;;22.80;81.30;;;;;;4997944;28;20031;-60
2023/07/30 02:55:37;;;;;;;17.58;15.45;;;22.80;81.50;;;;;;4999402;28;20027;-66
2023/07/30 02:58:03;;;;;;;18.40;15.13;;;22.80;82.20;;;;;;4998769;28;20034;-63
2023/07/30 03:00:29;;;;;;;16.23;12.57;;;22.80;81.70;;;;;;4998815;28;20087;-64
2023/07/30 03:02:56;;;;;;;16.52;12.75;;;22.80;81.50;;;;;;4998701;28;20104;-63
2023/07/30 03:05:22;;;;;;;14.00;12.35;;;22.70;81.20;;;;;;4999194;28;20041;-65
2023/07/30 03:07:48;;;;;;;14.68;10.77;;;22.60;81.10;;;;;;4998525;28;20080;-63
2023/07/30 03:10:14;;;;;;;13.40;10.57;;;22.60;81.00;;;;;;4998631;28;20106;-61
2023/07/30 03:12:40;;;;;;;13.40;10.07;;;22.50;80.90;;;;;;4998428;28;20046;-60
2023/07/30 03:15:06;;;;;;;12.85;9.60;;;22.50;80.80;;;;;;4998495;28;20026;-62
2023/07/30 03:17:32;;;;;;;12.68;10.02;;;22.40;80.80;;;;;;4998498;28;20023;-63
2023/07/30 03:19:58;;;;;;;14.57;10.80;;;22.40;80.80;;;;;;4998433;28;20146;-61
2023/07/30 03:22:24;;;;;;;13.98;10.57;;;22.40;80.80;;;;;;4997440;28;20034;-60
2023/07/30 03:24:50;;;;;;;13.82;10.55;;;22.30;80.90;;;;;;4998915;28;20061;-60
2023/07/30 03:27:16;;;;;;;18.80;11.32;;;22.20;80.90;;;;;;4998092;28;20036;-59
2023/07/30 03:29:42;;;;;;;13.43;10.50;;;22.10;81.00;;;;;;4998536;28;20046;-65
2023/07/30 03:32:08;;;;;;;12.77;10.20;;;22.10;81.10;;;;;;4998204;28;20452;-64
2023/07/30 03:34:34;;;;;;;12.20;9.82;;;22.10;81.10;;;;;;4998434;28;20022;-63
2023/07/30 03:37:00;;;;;;;14.05;9.63;;;22.10;81.20;;;;;;4998063;28;20046;-62
2023/07/30 03:39:26;;;;;;;12.93;9.98;;;22.00;81.20;;;;;;4998086;28;20405;-63
2023/07/30 03:41:52;;;;;;;12.98;8.93;;;22.00;81.10;;;;;;4998030;28;20030;-60
2023/07/30 03:44:18;;;;;;;12.13;8.55;;;22.00;81.10;;;;;;4998643;28;20029;-58
2023/07/30 03:46:44;;;;;;;12.02;8.18;;;22.00;81.00;;;;;;4999145;28;20393;-62
2023/07/30 03:49:10;;;;;;;12.23;8.13;;;21.90;81.00;;;;;;4997925;28;20098;-62
2023/07/30 03:51:38;;;;;;;10.32;8.32;;;21.90;81.00;;;;;;4998077;28;20105;-58
2023/07/30 03:54:04;;;;;;;10.15;7.90;;;21.90;81.00;;;;;;4998096;28;20022;-63
2023/07/30 03:56:30;;;;;;;10.25;7.68;;;21.80;81.00;;;;;;4997993;28;20117;-63
2023/07/30 03:58:56;;;;;;;7.93;6.30;;;21.80;81.00;;;;;;4997729;28;20104;-63
2023/07/30 04:01:22;;;;;;;8.10;6.20;;;21.80;81.10;;;;;;4997886;28;20045;-61
2023/07/30 04:03:48;;;;;;;7.78;4.80;;;21.80;81.10;;;;;;4998154;28;20448;-62
2023/07/30 04:06:14;;;;;;;7.05;4.55;;;21.70;81.00;;;;;;4997428;28;20031;-64
2023/07/30 04:08:40;;;;;;;7.15;4.40;;;21.70;80.80;;;;;;4998109;28;20354;-60
2023/07/30 04:11:06;;;;;;;5.65;3.90;;;21.70;80.70;;;;;;4997336;28;20050;-59
2023/07/30 04:13:32;;;;;;;4.03;3.60;;;21.70;80.70;;;;;;4997472;28;20474;-61
2023/07/30 04:15:58;;;;;;;4.50;3.40;;;21.60;80.70;;;;;;4997424;28;20026;-63
2023/07/30 04:18:24;;;;;;;3.90;2.90;;;21.60;80.60;;;;;;4997284;28;20097;-61
2023/07/30 04:20:50;;;;;;;3.25;2.80;;;21.60;80.60;;;;;;4997614;28;20429;-64
2023/07/30 04:23:16;;;;;;;3.97;2.92;;;21.70;80.50;;;;;;4997297;28;20322;-61
2023/07/30 04:25:42;;;;;;;4.03;2.83;;;21.70;80.60;;;;;;4997245;28;20400;-60
2023/07/30 04:28:09;;;;;;;2.70;2.47;;;21.70;80.40;;;;;;4997031;28;20018;-66
2023/07/30 04:30:35;;;;;;;6.28;2.95;;;21.80;80.40;;;;;;4997162;28;20022;-63
2023/07/30 04:33:00;;;;;;;3.63;2.60;;;21.90;80.30;;;;;;4996504;28;20464;-64
2023/07/30 04:35:27;;;;;;;6.13;3.17;;;21.90;80.20;;;;;;4997087;28;20081;-65
2023/07/30 04:37:52;;;;;;;3.40;2.60;;;22.00;80.10;;;;;;4997437;28;20037;-65
2023/07/30 04:40:18;;;;;;;3.35;2.90;;;22.10;80.00;;;;;;4997424;28;20112;-63
2023/07/30 04:42:46;;;;;;;5.78;3.50;;;22.20;79.80;;;;;;4996847;28;20030;-64
2023/07/30 04:45:11;;;;;;;4.38;2.92;;;22.30;79.60;;;;;;4997122;28;20046;-60
2023/07/30 04:47:37;;;;;;;5.63;2.90;;;22.40;79.40;;;;;;4996758;28;20048;-64
2023/07/30 04:50:04;;;;;;;4.82;3.08;;;22.40;79.30;;;;;;4995743;28;20026;-62
2023/07/30 04:52:30;;;;;;;5.03;3.28;;;22.50;79.20;;;;;;4996745;28;20026;-61
2023/07/30 04:54:56;;;;;;;4.50;3.10;;;22.60;79.00;;;;;;4997213;28;20045;-63
2023/07/30 04:57:22;;;;;;;6.55;3.47;;;22.70;78.80;;;;;;4996880;28;20030;-62
2023/07/30 04:59:48;;;;;;;5.05;3.95;;;22.80;78.60;;;;;;4996775;28;20356;-59
2023/07/30 05:02:14;;;;;;;4.82;3.40;;;22.90;78.40;;;;;;4996540;28;20457;-63
2023/07/30 05:04:40;;;;;;;4.78;3.58;;;22.90;78.30;;;;;;4996485;28;20106;-62
2023/07/30 05:07:06;;;;;;;4.63;3.20;;;22.90;78.20;;;;;;4996261;28;20105;-62
2023/07/30 05:09:32;;;;;;;4.43;3.70;;;22.90;78.20;;;;;;4996386;28;20041;-62
2023/07/30 05:11:58;;;;;;;4.10;3.42;;;23.10;78.00;;;;;;4996206;28;20069;-60
2023/07/30 05:14:24;;;;;;;5.45;3.55;;;23.30;78.00;;;;;;4996618;28;20054;-63
2023/07/30 05:16:50;;;;;;;5.53;3.88;;;23.40;77.50;;;;;;4995237;28;20031;-61
2023/07/30 05:19:17;;;;;;;5.80;3.85;;;23.40;77.20;;;;;;4996239;28;20081;-63
2023/07/30 05:21:42;;;;;;;4.55;3.28;;;23.50;77.00;;;;;;4996152;28;20469;-60
2023/07/30 05:24:08;;;;;;;4.97;3.60;;;23.50;77.00;;;;;;4996153;28;20046;-63
2023/07/30 05:26:34;;;;;;;3.83;3.15;;;23.50;76.90;;;;;;4996209;28;20026;-60
2023/07/30 05:29:00;;;;;;;4.10;3.50;;;23.60;76.80;;;;;;4996580;28;20037;-64
2023/07/30 05:31:26;;;;;;;4.15;3.30;;;23.70;76.70;;;;;;4996283;28;20381;-65
2023/07/30 05:33:53;;;;;;;3.40;3.10;;;23.90;76.50;;;;;;4996284;28;20026;-63
2023/07/30 05:36:19;;;;;;;3.58;3.10;;;24.20;76.20;;;;;;4996450;28;20487;-60
2023/07/30 05:38:44;;;;;;;3.95;2.97;;;25.20;75.70;;;;;;4996166;28;20109;-59
2023/07/30 05:41:10;;;;;;;4.32;3.40;;;26.90;73.50;;;;;;4996163;28;20102;-63
2023/07/30 05:43:36;;;;;;;4.60;3.20;;;28.90;70.10;;;;;;4996356;28;20033;-61
2023/07/30 05:46:02;;;;;;;3.70;3.00;;;30.50;65.60;;;;;;4994792;28;20022;-64
2023/07/30 05:48:28;;;;;;;3.00;2.60;;;32.20;62.20;;;;;;4995790;28;20049;-58
2023/07/30 05:50:54;;;;;;;4.40;2.60;;;33.50;58.40;;;;;;4995816;28;20302;-63
2023/07/30 05:53:20;;;;;;;4.20;2.72;;;34.70;55.60;;;;;;4996011;28;20468;-62
2023/07/30 05:55:46;;;;;;;4.45;2.65;;;35.80;53.10;;;;;;4995801;28;20026;-59
2023/07/30 05:58:11;;;;;;;3.30;2.50;;;36.50;51.50;;;;;;4995768;28;20030;-60
2023/07/30 06:00:38;;;;;;;3.50;2.80;;;36.10;50.20;;;;;;4995733;28;20125;-63
2023/07/30 06:03:06;;;;;;;3.97;2.30;;;35.00;50.30;;;;;;4996276;28;20445;-67
2023/07/30 06:05:31;;;;;;;2.95;2.40;;;33.90;51.60;;;;;;4995961;28;20038;-62
2023/07/30 06:07:59;;;;;;;2.33;2.17;;;33.80;52.80;;;;;;4994611;28;20356;-65
2023/07/30 06:10:25;;;;;;;3.13;2.75;;;34.40;52.20;;;;;;4995759;28;20014;-64
2023/07/30 06:12:51;;;;;;;2.42;2.03;;;35.30;50.80;;;;;;4995648;28;20027;-62
2023/07/30 06:15:17;;;;;;;2.30;2.10;;;36.50;48.80;;;;;;4996161;28;20024;-65
2023/07/30 06:17:43;;;;;;;3.08;2.10;;;37.70;46.10;;;;;;4995776;28;20046;-64
2023/07/30 06:20:10;;;;;;;3.08;2.30;;;38.90;43.70;;;;;;4995822;28;20045;-61
2023/07/30 06:22:36;;;;;;;2.70;2.30;;;40.00;42.60;;;;;;4999479;28;20384;-62
2023/07/30 06:25:02;;;;;;;3.95;2.60;;;40.90;40.60;;;;;;4999515;28;20022;-64
2023/07/30 06:27:28;;;;;;;2.67;2.47;;;41.70;39.20;;;;;;4999548;28;20054;-63
2023/07/30 06:29:54;;;;;;;3.10;2.15;;;42.40;38.20;;;;;;5000113;28;20026;-61
2023/07/30 06:32:20;;;;;;;4.40;2.47;;;43.00;36.70;;;;;;4999315;28;20026;-65
2023/07/30 06:34:46;;;;;;;2.83;2.10;;;43.60;36.10;;;;;;4999841;28;20027;-63
2023/07/30 06:37:11;;;;;;;1.73;1.58;;;44.10;35.20;;;;;;4999147;28;20101;-61
2023/07/30 06:39:37;;;;;;;2.88;1.77;;;44.40;34.60;;;;;;4999492;28;20418;-61
2023/07/30 06:42:04;;;;;;;2.03;1.80;;;44.70;33.50;;;;;;4999477;28;20026;-62
2023/07/30 06:44:30;;;;;;;1.60;1.50;;;45.10;32.70;;;;;;4999617;28;20037;-66
2023/07/30 06:46:56;;;;;;;2.05;1.85;;;45.30;31.70;;;;;;4999456;28;20038;-62
2023/07/30 06:49:22;;;;;;;1.60;1.50;;;45.40;31.20;;;;;;4999219;28;20047;-62
2023/07/30 06:51:48;;;;;;;1.48;1.30;;;45.50;31.10;;;;;;4999248;28;20041;-64
2023/07/30 06:54:15;;;;;;;2.25;1.90;;;45.80;30.30;;;;;;4999221;28;20033;-62
2023/07/30 06:56:41;;;;;;;2.00;1.77;;;45.90;29.40;;;;;;4998865;28;20345;-62
2023/07/30 06:59:06;;;;;;;1.70;1.58;;;45.60;29.00;;;;;;4999119;28;20022;-64
2023/07/30 07:01:32;;;;;;;1.88;1.73;;;44.60;29.70;;;;;;4998802;28;20497;-62
2023/07/30 07:03:58;;;;;;;1.67;1.52;;;43.20;30.90;;;;;;4999061;28;20038;-61
2023/07/30 07:06:24;;;;;;;1.80;1.70;;;41.70;32.80;;;;;;4999092;28;20069;-59
2023/07/30 07:08:50;;;;;;;2.30;1.67;;;40.00;34.50;;;;;;4998042;28;20042;-61
2023/07/30 07:11:16;;;;;;;1.75;1.63;;;38.40;36.60;;;;;;4998350;28;20128;-60
2023/07/30 07:13:42;;;;;;;3.33;1.63;;;37.10;38.40;;;;;;4998628;28;20027;-64
2023/07/30 07:16:08;;;;;;;2.63;1.70;;;35.90;40.10;;;;;;4998558;28;20130;-63
2023/07/30 07:18:35;;;;;;;1.92;1.65;;;35.00;41.80;;;;;;4998383;28;20015;-66
2023/07/30 07:21:01;;;;;;;1.42;1.33;;;34.30;43.20;;;;;;4998912;28;20040;-58
2023/07/30 07:23:27;;;;;;;1.67;1.58;;;33.70;44.30;;;;;;4998357;28;20018;-62
2023/07/30 07:25:53;;;;;;;2.13;1.70;;;33.40;45.30;;;;;;4997490;28;20022;-63
2023/07/30 07:28:19;;;;;;;2.13;1.83;;;33.10;46.20;;;;;;4998493;28;20046;-61
2023/07/30 07:30:46;;;;;;;2.97;1.60;;;32.90;46.50;;;;;;4998412;28;20019;-63
2023/07/30 07:33:12;;;;;;;2.25;1.65;;;32.50;47.00;;;;;;4996914;28;20031;-63
2023/07/30 07:35:41;;;;;;;2.75;1.60;;;32.00;48.00;;;;;;4998453;28;20077;-64
2023/07/30 07:38:08;;;;;;;1.85;1.60;;;31.80;48.90;;;;;;4998075;28;20030;-63
2023/07/30 07:40:40;;;;;;;1.30;1.20;;;31.50;49.50;;;;;;4998094;28;20475;-63
2023/07/30 07:43:07;;;;;;;1.35;1.25;;;31.40;49.70;;;;;;4998074;28;20030;-62
2023/07/30 07:45:34;;;;;;;1.75;1.40;;;31.40;50.10;;;;;;4998275;28;20030;-64
2023/07/30 07:48:00;;;;;;;1.05;1.05;;;31.20;50.00;;;;;;5000092;28;20041;-66
2023/07/30 07:50:26;;;;;;;1.50;1.40;;;31.10;50.20;;;;;;4998527;28;20030;-61
2023/07/30 07:52:52;;;;;;;1.75;1.25;;;31.10;50.50;;;;;;4997259;28;20082;-62
2023/07/30 07:55:18;;;;;;;2.05;1.45;;;31.00;50.30;;;;;;4997852;28;20026;-60
2023/07/30 07:57:44;;;;;;;1.50;1.40;;;30.90;50.80;;;;;;4997688;28;20054;-59
2023/07/30 08:00:11;;;;;;;2.08;1.30;;;30.90;50.90;;;;;;4997753;28;20073;-61
2023/07/30 08:02:37;;;;;;;1.50;1.40;;;30.90;50.90;;;;;;4996706;28;20026;-65
2023/07/30 08:05:03;;;;;;;1.40;1.30;;;31.10;51.10;;;;;;4997688;28;20330;-64
2023/07/30 08:07:29;;;;;;;1.30;1.20;;;31.30;51.00;;;;;;4997751;28;20448;-64
2023/07/30 08:09:55;;;;;;;2.53;1.25;;;31.30;50.80;;;;;;4998069;28;20054;-62
2023/07/30 08:12:21;;;;;;;1.70;1.60;;;31.40;50.70;;;;;;4997421;28;20050;-66
2023/07/30 08:14:48;;;;;;;1.67;1.40;;;31.40;50.70;;;;;;4997693;28;20026;-62
2023/07/30 08:17:14;;;;;;;1.83;1.20;;;31.50;50.60;;;;;;4996394;28;20030;-65
2023/07/30 08:19:40;;;;;;;1.85;1.35;;;31.70;50.50;;;;;;4996392;28;20026;-59
2023/07/30 08:22:06;;;;;;;2.28;1.50;;;31.80;50.00;;;;;;4996332;28;20496;-60
2023/07/30 08:24:32;;;;;;;2.33;1.35;;;31.70;49.30;;;;;;4997259;28;20050;-61
2023/07/30 08:26:59;;;;;;;1.48;1.38;;;31.40;49.60;;;;;;4997448;28;20149;-60
2023/07/30 08:29:26;;;;;;;1.52;1.33;;;31.40;50.10;;;;;;4997430;28;20023;-64
2023/07/30 08:31:52;;;;;;;1.40;1.30;;;31.40;50.10;;;;;;4996551;28;20041;-66
2023/07/30 08:34:18;;;;;;;2.08;1.58;;;31.50;50.10;;;;;;4997615;28;20437;-62
2023/07/30 08:36:44;;;;;;;1.63;1.50;;;31.60;50.00;;;;;;4997451;28;20053;-60
2023/07/30 08:39:10;;;;;;;1.20;1.10;;;31.60;50.00;;;;;;4996949;28;20041;-59
2023/07/30 08:41:36;;;;;;;1.83;1.60;;;31.50;49.80;;;;;;4996931;28;20034;-61
2023/07/30 08:44:02;;;;;;;1.58;1.48;;;31.40;50.10;;;;;;4996570;28;20475;-61
2023/07/30 08:46:28;;;;;;;2.30;1.42;;;31.30;50.30;;;;;;4996675;28;20041;-63
2023/07/30 08:48:56;;;;;;;1.52;1.40;;;31.20;50.60;;;;;;4997018;28;20022;-63
2023/07/30 08:51:24;;;;;;;1.40;1.30;;;31.30;50.70;;;;;;4997071;28;20192;-63
2023/07/30 08:53:51;;;;;;;1.30;1.20;;;31.40;50.70;;;;;;4995787;28;20069;-60
2023/07/30 08:56:18;;;;;;;1.65;1.45;;;31.50;50.30;;;;;;4996638;28;20038;-61
2023/07/30 08:58:46;;;;;;;1.50;1.40;;;31.50;50.20;;;;;;4996634;28;20464;-65
2023/07/30 09:01:14;;;;;;;1.90;1.50;;;31.40;49.80;;;;;;4996575;28;20026;-62
2023/07/30 09:03:41;;;;;;;1.92;1.80;;;31.40;49.60;;;;;;4997088;28;20106;-61
2023/07/30 09:06:12;;;;;;;2.78;1.95;;;31.20;49.80;;;;;;4995540;28;20452;-62
2023/07/30 09:08:39;;;;;;;1.67;1.58;;;30.90;48.80;;;;;;4996993;28;20080;-61
2023/07/30 09:11:11;;;;;;;3.03;1.85;;;30.60;50.20;;;;;;4996373;28;20050;-60
2023/07/30 09:13:39;;;;;;;1.43;1.33;;;30.60;50.50;;;;;;4995558;28;20026;-61
2023/07/30 09:16:15;;;;;;;1.48;1.38;;;30.60;50.60;;;;;;4995730;28;20254;-64
2023/07/30 09:18:42;;;;;;;1.40;1.30;;;30.50;50.60;;;;;;4996575;28;20548;-60
2023/07/30 09:21:11;;;;;;;2.05;1.70;;;30.60;50.70;;;;;;4996795;28;20022;-62
2023/07/30 09:23:43;;;;;;;2.13;1.92;;;30.60;50.70;;;;;;4996454;28;20352;-63
2023/07/30 09:26:10;;;;;;;1.97;1.80;;;30.60;50.70;;;;;;4996074;28;20373;-63
2023/07/30 09:28:37;;;;;;;2.10;1.90;;;30.60;50.90;;;;;;4996793;28;20569;-64
2023/07/30 09:31:08;;;;;;;1.60;1.50;;;30.50;50.90;;;;;;4996341;28;20026;-61
2023/07/30 09:33:42;;;;;;;1.60;1.50;;;30.50;51.20;;;;;;4996005;28;20085;-60
2023/07/30 09:36:09;;;;;;;3.10;1.70;;;30.60;50.80;;;;;;4995167;28;20041;-61
2023/07/30 09:38:45;;;;;;;1.35;1.33;;;30.70;50.70;;;;;;4994928;28;20026;-65
2023/07/30 09:41:14;;;;;;;2.08;1.70;;;30.70;50.70;;;;;;4996195;28;20042;-64
2023/07/30 09:43:40;;;;;;;1.75;1.65;;;30.70;50.40;;;;;;4995859;28;20105;-65
2023/07/30 09:46:07;;;;;;;2.05;1.67;;;30.80;50.50;;;;;;4995996;28;20113;-61
2023/07/30 09:48:34;;;;;;;2.40;1.77;;;30.90;50.40;;;;;;4995120;28;20019;-60
2023/07/30 09:51:02;;;;;;;2.30;1.65;;;30.90;50.30;;;;;;4996074;28;20529;-61
2023/07/30 09:53:30;;;;;;;1.80;1.70;;;30.90;50.40;;;;;;4996014;28;20081;-60
2023/07/30 09:55:56;;;;;;;2.13;1.83;;;30.90;50.20;;;;;;4995491;28;20088;-60
2023/07/30 09:58:22;;;;;;;1.98;1.73;;;30.80;50.30;;;;;;4995086;28;20026;-61
2023/07/30 10:00:49;;;;;;;2.15;1.88;;;30.70;50.60;;;;;;4994805;28;20038;-61
2023/07/30 10:03:16;;;;;;;2.08;1.98;;;30.70;50.50;;;;;;4995993;28;20118;-64
2023/07/30 10:05:46;;;;;;;2.00;1.80;;;30.70;50.30;;;;;;4996016;28;20030;-65
2023/07/30 10:08:20;;;;;;;1.90;1.70;;;30.70;50.40;;;;;;4995649;28;20483;-61
2023/07/30 10:10:47;;;;;;;2.40;2.20;;;30.70;50.50;;;;;;4995778;28;20465;-66
2023/07/30 10:13:16;;;;;;;1.98;1.83;;;30.60;50.40;;;;;;4996215;28;20034;-61
2023/07/30 10:15:43;;;;;;;2.40;2.20;;;30.60;50.40;;;;;;4995891;28;20026;-63
2023/07/30 10:18:09;;;;;;;2.42;2.17;;;30.50;50.40;;;;;;4995607;28;20389;-63
2023/07/30 10:20:35;;;;;;;2.00;1.80;;;30.50;50.60;;;;;;4995649;28;20041;-63
2023/07/30 10:23:04;;;;;;;2.08;1.90;;;30.50;50.80;;;;;;4996159;28;20142;-61
2023/07/30 10:25:45;;;;;;;2.10;1.90;;;30.60;50.70;;;;;;4995528;28;20082;-61
2023/07/30 10:28:32;;;;;;;3.10;2.22;;;30.70;50.60;;;;;;4995494;28;20034;-60
2023/07/30 10:31:09;;;;;;;3.05;2.45;;;30.60;49.60;;;;;;4995837;28;20045;-64
2023/07/30 10:33:55;;;;;;;2.38;2.10;;;30.50;50.20;;;;;;4994598;28;20381;-66
2023/07/30 10:36:33;;;;;;;3.10;2.13;;;30.40;50.40;;;;;;4995956;28;20054;-62
2023/07/30 10:39:14;;;;;;;2.42;2.20;;;30.30;51.10;;;;;;4994895;28;20023;-66
2023/07/30 10:41:40;;;;;;;2.47;2.28;;;30.20;51.10;;;;;;4994462;28;20034;-62
2023/07/30 10:44:06;;;;;;;2.20;2.00;;;30.20;51.40;;;;;;4991486;28;20056;-62
2023/07/30 10:46:32;;;;;;;2.22;2.03;;;30.20;51.80;;;;;;4988594;28;20026;-62
2023/07/30 10:48:58;;;;;;;4.32;1.98;;;30.30;51.90;;;;;;4974989;28;20023;-61
2023/07/30 10:51:25;;;;;;;3.15;2.30;;;30.40;51.70;;;;;;4975732;28;20038;-64
2023/07/30 10:53:51;;;;;;;2.67;2.03;;;30.40;51.30;;;;;;4975861;28;20027;-63
2023/07/30 10:56:26;;;;;;;3.15;2.35;;;30.40;51.30;;;;;;4958835;28;20062;-61
2023/07/30 10:58:54;;;;;;;2.25;2.00;;;30.50;51.40;;;;;;4975288;28;20106;-66
2023/07/30 11:01:20;;;;;;;2.83;2.10;;;30.60;51.50;;;;;;4974890;28;20038;-62
2023/07/30 11:03:51;;;;;;;3.10;2.47;;;30.70;51.30;;;;;;4976346;28;20022;-64
2023/07/30 11:06:25;;;;;;;3.33;2.63;;;30.90;51.10;;;;;;4976274;28;20039;-64
2023/07/30 11:08:51;;;;;;;2.78;2.25;;;30.90;51.20;;;;;;4979620;28;20103;-62
2023/07/30 11:11:17;;;;;;;2.28;2.08;;;31.10;51.10;;;;;;4979177;28;20054;-64
2023/07/30 11:13:50;;;;;;;3.20;2.60;;;31.10;51.00;;;;;;4978157;28;20054;-62
2023/07/30 11:16:16;;;;;;;2.90;2.40;;;31.20;51.00;;;;;;4979613;28;20026;-65
2023/07/30 11:18:43;;;;;;;2.45;2.20;;;31.20;50.80;;;;;;4979628;28;20054;-63
2023/07/30 11:21:12;;;;;;;2.88;2.50;;;31.20;50.80;;;;;;4979361;28;20113;-66
2023/07/30 11:23:42;;;;;;;2.75;2.50;;;31.20;51.00;;;;;;4979046;28;20027;-61
2023/07/30 11:26:13;;;;;;;2.67;2.47;;;31.20;51.10;;;;;;4979453;28;20027;-62
2023/07/30 11:28:40;;;;;;;2.60;2.40;;;31.40;51.20;;;;;;4979199;28;20027;-63
2023/07/30 11:31:08;;;;;;;3.03;2.60;;;31.50;51.40;;;;;;4978958;28;20029;-63
2023/07/30 11:33:46;;;;;;;2.50;2.30;;;31.70;51.30;;;;;;4978882;28;20030;-62
2023/07/30 11:36:17;;;;;;;3.75;2.67;;;31.90;51.30;;;;;;4979126;28;20023;-62
2023/07/30 11:38:45;;;;;;;2.42;2.22;;;31.90;50.80;;;;;;4978804;28;20077;-64
2023/07/30 11:41:12;;;;;;;3.38;2.60;;;31.80;50.80;;;;;;4977719;28;20073;-65
2023/07/30 11:43:43;;;;;;;2.95;2.70;;;31.70;50.90;;;;;;4978316;28;20071;-62
2023/07/30 11:46:12;;;;;;;3.03;2.70;;;31.60;50.90;;;;;;4978558;28;20018;-62
2023/07/30 11:48:38;;;;;;;3.08;2.78;;;31.40;51.10;;;;;;4978866;28;20030;-66
2023/07/30 11:51:05;;;;;;;3.10;2.70;;;31.40;51.20;;;;;;4979075;28;20034;-64
2023/07/30 11:54:04;;;;;;;3.72;2.53;;;31.30;51.40;;;;;;4978496;28;20511;-61
2023/07/30 11:56:33;;;;;;;3.90;2.70;;;31.30;51.70;;;;;;4978148;28;20053;-60
2023/07/30 11:59:03;;;;;;;3.03;2.58;;;31.30;51.80;;;;;;4978603;28;20033;-64
2023/07/30 12:01:31;;;;;;;3.33;2.50;;;31.40;51.70;;;;;;4977511;28;20109;-60
2023/07/30 12:04:01;;;;;;;2.95;2.60;;;31.40;51.80;;;;;;4978756;28;20464;-61
2023/07/30 12:06:45;;;;;;;2.92;2.47;;;31.40;51.80;;;;;;4977260;28;20038;-64
2023/07/30 12:09:16;;;;;;;3.15;2.85;;;31.50;51.90;;;;;;4978732;28;20023;-62
2023/07/30 12:12:00;;;;;;;3.50;2.78;;;31.60;51.60;;;;;;4960898;28;20046;-62
2023/07/30 12:14:32;;;;;;;3.13;2.75;;;31.70;51.20;;;;;;4978406;28;20034;-64
2023/07/30 12:17:01;;;;;;;2.88;2.58;;;31.70;51.20;;;;;;4978005;28;20369;-65
2023/07/30 12:19:27;;;;;;;3.75;2.47;;;31.70;51.30;;;;;;4978221;28;20468;-63
2023/07/30 12:21:53;;;;;;;3.10;2.80;;;31.80;51.30;;;;;;4978003;28;20031;-62
2023/07/30 12:24:19;;;;;;;3.10;2.50;;;31.90;51.20;;;;;;4977883;28;20038;-62
2023/07/30 12:26:45;;;;;;;3.72;2.67;;;31.90;51.10;;;;;;4976747;28;20035;-62
2023/07/30 12:29:11;;;;;;;2.85;2.65;;;31.90;51.10;;;;;;4977871;28;20101;-66
2023/07/30 12:31:37;;;;;;;2.88;2.58;;;31.90;51.00;;;;;;4978252;28;20062;-62
2023/07/30 12:34:03;;;;;;;2.97;2.78;;;31.80;50.90;;;;;;4978017;28;20408;-64
2023/07/30 12:36:29;;;;;;;3.80;2.80;;;31.80;50.70;;;;;;4977929;28;20101;-67
2023/07/30 12:38:55;;;;;;;3.00;2.70;;;31.80;50.60;;;;;;4976684;28;20037;-63
2023/07/30 12:41:25;;;;;;;3.08;2.78;;;31.80;50.60;;;;;;4976625;28;20031;-63
2023/07/30 12:43:56;;;;;;;3.38;3.08;;;31.90;50.80;;;;;;4977550;28;20505;-61